Spearfish, SD (57783)

6:50 PM MST on February 23, 2017 (GMT -0700)
TMWC | | Change Station
Active Advisory: Winter Storm Warning

Elev 3685 ft 44.49 °N, 103.87 °W | Updated 4 seconds ago

Overcast
Overcast
27.0 °F
Feels Like 23 °F
N
3.6
Wind Variable Wind from NE
Gusts 3.6 mph

Today
High -- | Low -- °F
--% Chance of Precip.
Yesterday
High -- | Low -- °F
Precip. -- in
Pressure 29.94 in
Visibility 9.0 miles
Clouds Few 1400 ft
Mostly Cloudy 1900 ft
Mostly Cloudy 2600 ft
Windchill 23 °F
Dew Point 20 °F
Humidity 73%
Rainfall 0.08 in
Snow Depth Not available.
6:42 AM 5:35 PM
Waning Crescent, 7% visible
METAR KSPF 240135Z AUTO 05003KT 9SM -SN FEW014 BKN019 BKN026 M04/M05 A2994 RMK AO2
Pressure 29.94 in
Visibility 9.0 miles
Clouds Few 1400 ft
Mostly Cloudy 1900 ft
Mostly Cloudy 2600 ft
Windchill 23 °F
Dew Point 20 °F
Humidity 73%
Rainfall 0.08 in
Snow Depth Not available.
6:42 AM 5:35 PM
Waning Crescent, 7% visible
METAR KSPF 240135Z AUTO 05003KT 9SM -SN FEW014 BKN019 BKN026 M04/M05 A2994 RMK AO2

Get Your Daily Forecast Email!

Thanks for signing up!

Be on the lookout for a verification email in your inbox.

You'll start receiving the daily forecast at 8 AM.

×

10-Day Weather Forecast

Almanac

Astronomy

Feb. 23, 2017 Rise Set
Actual Time
Civil Twilight
Nautical Twilight
Astronomical Twilight
Moon
Length of Visible Light
Length of Day
Tomorrow will be .
, % of the Moon is Illuminated

Today's Extremes

State Highs State Lows

Community

WunderPhotos

Upload Photos

1,962,540 photos uploaded!

WunderBlog® & News

Nearby

Air Quality

  Air Quality AQ Index Pollutant
Not available.

Snow Depth

Station Depth Elevation

Earthquake Activity

City Distance Mag. Time & Date
Minimum magnitude displayed is 2.5.

Coastal Water Temperatures

Place Temperature

Stations

Nearby Weather Stations

Station Location Temp. Windchill Dew Point Humidity Wind Precip. Elev Updated Type
                   

Watches & Warnings

Winter Storm Warning
Issued: 5:22 PM MST Feb. 23, 2017 – National Weather Service

... Winter Storm Warning remains in effect until 5 am MST Friday...

* snow will continue through this evening, tapering off late
tonight.

* Additional snow accumulations of 2 to 5 inches are expected.

* Look for significant reductions in visibility at times.

* Icy and slippery spots will develop on the roads as temperatures
cool this evening. Travel will be hazardous through Friday morning.


Precautionary/preparedness actions...

A Winter Storm Warning for snow means severe winter weather
conditions are expected. If you must travel... keep an extra
flashlight... food and water in your vehicle in case of an
emergency. The latest Road conditions for the state you are
calling from can be obtained by calling 5 1 1.